createdAt,value
2019-04-20T00:00:00.765Z,9.37
2019-04-20T00:02:29.524Z,9.53
2019-04-20T00:05:01.159Z,9.07
2019-04-20T00:07:35.618Z,9.77
2019-04-20T00:10:08.682Z,10.17
2019-04-20T00:12:46.038Z,11.00
2019-04-20T00:15:07.510Z,10.53
2019-04-20T00:17:40.213Z,10.53
2019-04-20T00:20:15.554Z,9.50
2019-04-20T00:23:07.806Z,10.47
2019-04-20T00:26:07.687Z,10.57
2019-04-20T00:28:45.662Z,10.03
2019-04-20T00:31:19.006Z,10.90
2019-04-20T00:33:49.681Z,10.73
2019-04-20T00:36:16.237Z,10.30
2019-04-20T00:38:53.022Z,11.07
2019-04-20T00:41:21.226Z,10.20
2019-04-20T00:43:53.278Z,10.23
2019-04-20T00:46:29.292Z,10.60
2019-04-20T00:49:01.577Z,10.63
2019-04-20T00:51:39.414Z,10.40
2019-04-20T00:54:03.941Z,9.80
2019-04-20T00:56:35.149Z,9.47
2019-04-20T00:59:17.176Z,10.43
2019-04-20T01:01:52.623Z,10.77
2019-04-20T01:04:25.419Z,11.67
2019-04-20T01:07:06.216Z,11.30
2019-04-20T01:09:43.879Z,10.37
2019-04-20T01:12:18.191Z,10.20
2019-04-20T01:14:52.269Z,11.83
2019-04-20T01:17:16.102Z,11.93
2019-04-20T01:19:48.940Z,12.03
2019-04-20T01:22:21.891Z,12.23
2019-04-20T01:24:52.007Z,11.73
2019-04-20T01:27:37.434Z,10.60
2019-04-20T01:30:05.862Z,11.80
2019-04-20T01:32:37.203Z,11.17
2019-04-20T01:35:19.670Z,11.03
2019-04-20T01:37:52.244Z,11.67
2019-04-20T01:40:07.772Z,12.40
2019-04-20T01:42:38.867Z,12.20
2019-04-20T01:45:14.613Z,12.03
2019-04-20T01:47:46.154Z,12.30
2019-04-20T01:50:19.142Z,11.73
2019-04-20T01:52:56.470Z,10.90
2019-04-20T01:55:33.491Z,12.57
2019-04-20T01:58:17.637Z,12.93
2019-04-20T02:00:49.624Z,12.57
2019-04-20T02:03:40.404Z,12.30
2019-04-20T02:06:11.825Z,12.53
2019-04-20T02:08:37.874Z,11.83
2019-04-20T02:11:09.122Z,11.97
2019-04-20T02:13:47.437Z,13.07
2019-04-20T02:16:19.150Z,11.87
2019-04-20T02:19:02.114Z,11.13
2019-04-20T02:21:36.840Z,12.10
2019-04-20T02:23:51.569Z,12.43
2019-04-20T02:26:17.873Z,13.00
2019-04-20T02:32:09.022Z,12.50
2019-04-20T02:34:33.579Z,12.27
2019-04-20T02:37:09.431Z,12.27
2019-04-20T02:42:12.072Z,11.87
2019-04-20T02:44:41.738Z,11.87
2019-04-20T02:54:40.743Z,11.93
2019-04-20T02:57:14.483Z,11.60
2019-04-20T03:02:06.240Z,11.17
2019-04-20T03:04:25.771Z,11.30
2019-04-20T03:07:06.868Z,11.63
2019-04-20T03:09:40.011Z,11.00
2019-04-20T03:12:18.665Z,11.70
2019-04-20T03:14:39.657Z,11.97
2019-04-20T03:17:21.424Z,12.20
2019-04-20T03:19:41.222Z,11.83
2019-04-20T03:23:00.562Z,12.50
2019-04-20T03:24:55.401Z,12.97
2019-04-20T03:27:34.357Z,12.27
2019-04-20T03:33:28.653Z,13.13
2019-04-20T03:35:43.136Z,12.40
2019-04-20T03:38:10.410Z,11.23
2019-04-20T03:40:34.683Z,11.60
2019-04-20T03:42:51.141Z,12.90
2019-04-20T03:45:23.072Z,13.47
2019-04-20T03:48:08.301Z,11.57
2019-04-20T03:50:46.268Z,13.10
2019-04-20T03:53:22.939Z,13.40
2019-04-20T03:55:53.052Z,13.30
2019-04-20T03:58:44.275Z,12.30
2019-04-20T04:02:09.400Z,13.43
2019-04-20T04:04:31.231Z,12.73
2019-04-20T04:06:46.328Z,14.43
2019-04-20T04:09:21.241Z,13.70
2019-04-20T04:11:55.082Z,13.07
2019-04-20T04:14:11.688Z,13.00
2019-04-20T04:16:47.810Z,13.00
2019-04-20T04:19:21.497Z,13.27
2019-04-20T04:22:05.014Z,12.30
2019-04-20T04:24:30.709Z,14.43
2019-04-20T04:27:01.906Z,13.97
2019-04-20T04:29:44.158Z,13.33
2019-04-20T04:32:21.179Z,13.63
2019-04-20T04:34:39.208Z,14.30
2019-04-20T04:37:14.722Z,14.13
2019-04-20T04:39:47.459Z,12.60
2019-04-20T04:42:16.904Z,13.47
2019-04-20T04:44:37.697Z,13.43
2019-04-20T04:47:00.208Z,13.87
2019-04-20T04:49:34.181Z,13.17
2019-04-20T04:52:05.417Z,13.37
2019-04-20T04:54:37.778Z,14.30
2019-04-20T04:56:59.444Z,14.47
2019-04-20T04:59:29.570Z,14.70
2019-04-20T05:02:00.480Z,14.23
2019-04-20T05:05:10.568Z,14.23
2019-04-20T05:07:43.517Z,14.53
2019-04-20T05:10:01.206Z,14.67
2019-04-20T05:12:33.578Z,15.07
2019-04-20T05:15:10.071Z,14.43
2019-04-20T05:17:53.007Z,14.43
2019-04-20T05:20:23.212Z,14.10
2019-04-20T05:22:57.028Z,15.80
2019-04-20T05:25:51.983Z,13.73
2019-04-20T05:28:17.053Z,16.10
2019-04-20T05:30:40.289Z,15.37
2019-04-20T05:33:10.010Z,15.73
2019-04-20T05:35:58.537Z,14.63
2019-04-20T05:38:31.488Z,14.50
2019-04-20T05:40:58.046Z,15.53
2019-04-20T05:43:27.580Z,14.70
2019-04-20T05:45:57.803Z,16.20
2019-04-20T05:48:31.676Z,15.23
2019-04-20T05:51:04.128Z,15.37
2019-04-20T05:53:40.991Z,15.40
2019-04-20T05:56:02.606Z,14.93
2019-04-20T05:58:38.482Z,15.87
2019-04-20T06:01:12.251Z,12.93
2019-04-20T06:03:38.193Z,14.97
2019-04-20T06:06:08.303Z,14.63
2019-04-20T06:08:45.316Z,14.47
2019-04-20T06:11:17.956Z,14.13
2019-04-20T06:13:59.938Z,14.17
2019-04-20T06:16:49.800Z,14.70
2019-04-20T06:19:26.034Z,14.30
2019-04-20T06:22:06.396Z,15.60
2019-04-20T06:24:45.162Z,15.10
2019-04-20T06:27:23.947Z,13.73
2019-04-20T06:29:38.026Z,14.13
2019-04-20T06:32:10.969Z,15.50
2019-04-20T06:34:37.724Z,14.73
2019-04-20T06:37:06.959Z,14.37
2019-04-20T06:39:44.769Z,15.33
2019-04-20T06:42:15.349Z,14.63
2019-04-20T06:44:45.480Z,15.50
2019-04-20T06:47:16.192Z,15.23
2019-04-20T06:49:38.063Z,13.83
2019-04-20T06:52:27.692Z,14.73
2019-04-20T06:55:15.659Z,14.23
2019-04-20T06:57:48.598Z,13.37
2019-04-20T07:00:19.334Z,13.63
2019-04-20T07:03:05.875Z,14.07
2019-04-20T07:05:31.762Z,14.13
2019-04-20T07:08:01.421Z,14.63
2019-04-20T07:10:28.583Z,13.87
2019-04-20T07:12:51.751Z,14.20
2019-04-20T07:15:19.016Z,14.13
2019-04-20T07:18:15.726Z,12.73
2019-04-20T07:21:05.521Z,13.87
2019-04-20T07:23:56.082Z,13.67
2019-04-20T07:26:12.770Z,13.33
2019-04-20T07:28:43.691Z,13.63
2019-04-20T07:31:10.802Z,14.43
2019-04-20T07:33:39.442Z,13.57
2019-04-20T07:36:18.322Z,13.10
2019-04-20T07:38:54.275Z,12.17
2019-04-20T07:41:14.348Z,12.80
2019-04-20T07:43:54.115Z,13.10
2019-04-20T07:46:23.594Z,13.43
2019-04-20T07:48:48.214Z,12.60
2019-04-20T07:51:03.533Z,13.40
2019-04-20T07:53:40.301Z,13.73
2019-04-20T07:56:16.701Z,15.70
2019-04-20T07:58:36.689Z,12.00
2019-04-20T08:01:38.535Z,13.07
2019-04-20T08:04:11.841Z,13.03
2019-04-20T08:06:32.133Z,13.20
2019-04-20T08:09:08.761Z,12.37
2019-04-20T08:11:50.740Z,12.27
2019-04-20T08:14:22.737Z,12.93
2019-04-20T08:16:58.701Z,12.50
2019-04-20T08:19:19.947Z,13.50
2019-04-20T08:22:07.709Z,13.77
2019-04-20T08:24:17.019Z,13.10
2019-04-20T08:26:41.351Z,13.43
2019-04-20T08:29:30.125Z,12.77
2019-04-20T08:32:17.834Z,12.63
2019-04-20T08:34:47.494Z,13.40
2019-04-20T08:37:17.255Z,12.07
2019-04-20T08:39:58.336Z,12.83
2019-04-20T08:42:20.517Z,12.50
2019-04-20T08:45:02.632Z,12.03
2019-04-20T08:47:35.098Z,11.60
2019-04-20T08:50:21.234Z,12.57
2019-04-20T08:55:29.490Z,12.23
2019-04-20T08:57:29.100Z,11.83
2019-04-20T09:00:01.458Z,11.57
2019-04-20T09:02:30.434Z,12.23
2019-04-20T09:05:04.826Z,12.17
2019-04-20T09:07:35.427Z,11.67
2019-04-20T09:10:25.629Z,10.97
2019-04-20T09:12:46.446Z,11.93
2019-04-20T09:15:03.797Z,10.93
2019-04-20T09:17:48.426Z,12.43
2019-04-20T09:20:16.466Z,11.83
2019-04-20T09:23:02.493Z,10.67
2019-04-20T09:25:50.334Z,12.00
2019-04-20T09:28:18.803Z,11.53
2019-04-20T09:30:49.694Z,11.63
2019-04-20T09:33:47.071Z,11.40
2019-04-20T09:36:21.114Z,11.57
2019-04-20T09:39:04.626Z,11.37
2019-04-20T09:41:58.121Z,10.17
2019-04-20T09:44:02.571Z,10.87
2019-04-20T09:46:39.330Z,11.40
2019-04-20T09:49:18.306Z,11.47
2019-04-20T09:51:50.002Z,11.00
2019-04-20T09:54:27.082Z,10.23
2019-04-20T09:57:02.140Z,10.73
2019-04-20T09:59:30.628Z,11.20
2019-04-20T10:01:45.314Z,10.40
2019-04-20T10:04:11.048Z,10.40
2019-04-20T10:06:41.447Z,9.77
2019-04-20T10:09:11.622Z,11.50
2019-04-20T10:11:43.716Z,10.43
2019-04-20T10:14:12.311Z,10.33
2019-04-20T10:16:41.980Z,11.67
2019-04-20T10:19:11.915Z,11.17
2019-04-20T10:21:41.822Z,10.63
2019-04-20T10:24:11.063Z,10.37
2019-04-20T10:26:40.764Z,9.60
2019-04-20T10:29:10.090Z,9.77
2019-04-20T10:31:44.604Z,10.23
2019-04-20T10:34:11.546Z,10.60
2019-04-20T10:37:03.867Z,9.90
2019-04-20T10:39:36.278Z,9.97
2019-04-20T10:42:06.046Z,10.17
2019-04-20T10:44:36.687Z,10.27
2019-04-20T10:47:07.269Z,10.10
2019-04-20T10:49:38.287Z,10.10
2019-04-20T10:52:07.756Z,9.67
2019-04-20T10:54:36.952Z,10.17
2019-04-20T10:57:06.065Z,10.30
2019-04-20T10:59:35.277Z,10.03
2019-04-20T11:02:05.654Z,10.63
2019-04-20T11:04:35.093Z,10.47
2019-04-20T11:07:04.835Z,10.83
2019-04-20T11:09:34.498Z,11.03
2019-04-20T11:12:08.274Z,10.43
2019-04-20T11:14:41.938Z,10.07
2019-04-20T11:17:08.677Z,11.67
2019-04-20T11:19:39.297Z,11.23
2019-04-20T11:22:08.550Z,11.70
2019-04-20T11:24:38.570Z,11.07
2019-04-20T11:27:10.427Z,12.10
2019-04-20T11:29:49.946Z,11.17
2019-04-20T11:32:20.174Z,12.37
2019-04-20T11:34:51.272Z,11.07
2019-04-20T11:37:21.340Z,12.00
2019-04-20T11:39:50.928Z,12.17
2019-04-20T11:42:21.627Z,13.53
2019-04-20T11:44:52.823Z,10.67
2019-04-20T11:47:22.695Z,9.87
2019-04-20T11:49:53.399Z,9.57
2019-04-20T11:52:37.225Z,9.83
2019-04-20T11:55:02.591Z,9.77
2019-04-20T11:57:31.846Z,10.83
2019-04-20T12:00:01.183Z,9.67
2019-04-20T12:02:40.840Z,10.23
2019-04-20T12:05:21.377Z,9.00
2019-04-20T12:07:55.445Z,8.90
2019-04-20T12:10:27.784Z,7.27
2019-04-20T12:12:57.580Z,8.07
2019-04-20T12:15:26.905Z,7.53
2019-04-20T12:17:57.820Z,7.20
2019-04-20T12:20:29.105Z,7.23
2019-04-20T12:22:58.531Z,7.77
2019-04-20T12:25:28.500Z,7.83
2019-04-20T12:28:01.843Z,7.53
2019-04-20T12:30:30.491Z,8.03
2019-04-20T12:33:01.659Z,7.70
2019-04-20T12:35:31.950Z,6.83
2019-04-20T12:38:01.316Z,7.20
2019-04-20T12:40:32.276Z,7.63
2019-04-20T12:43:01.772Z,7.43
2019-04-20T12:45:31.564Z,7.37
2019-04-20T12:48:01.752Z,8.03
2019-04-20T12:50:31.844Z,8.67
2019-04-20T12:53:02.331Z,10.07
2019-04-20T12:55:32.593Z,8.90
2019-04-20T12:58:02.822Z,9.73
2019-04-20T13:00:46.915Z,8.70
2019-04-20T13:03:19.425Z,9.27
2019-04-20T13:05:50.030Z,8.83
2019-04-20T13:08:26.925Z,8.67
2019-04-20T13:11:00.413Z,9.50
2019-04-20T13:13:56.660Z,9.00
2019-04-20T13:16:30.350Z,9.63
2019-04-20T13:19:01.810Z,9.40
2019-04-20T13:21:32.418Z,9.08
2019-04-20T13:24:03.099Z,8.43
2019-04-20T13:26:33.244Z,8.73
2019-04-20T13:29:02.639Z,8.28
2019-04-20T13:31:31.855Z,8.03
2019-04-20T13:34:01.517Z,7.37
2019-04-20T13:36:30.816Z,7.80
2019-04-20T13:39:01.805Z,8.30
2019-04-20T13:41:31.736Z,7.65
2019-04-20T13:44:02.017Z,7.83
2019-04-20T13:46:33.065Z,7.72
2019-04-20T13:49:02.985Z,7.28
2019-04-20T13:51:32.854Z,7.20
2019-04-20T13:54:06.329Z,7.42
2019-04-20T13:56:34.017Z,7.47
2019-04-20T13:59:21.666Z,6.60
2019-04-20T14:01:57.064Z,6.50
2019-04-20T14:04:32.772Z,6.22
2019-04-20T14:07:01.980Z,6.62
2019-04-20T14:09:31.126Z,6.30
2019-04-20T14:12:11.871Z,5.92
2019-04-20T14:14:31.260Z,5.97
2019-04-20T14:17:01.201Z,6.40
2019-04-20T14:19:31.411Z,6.50
2019-04-20T14:22:02.174Z,6.83
2019-04-20T14:24:33.035Z,6.75
2019-04-20T14:27:03.339Z,5.85
2019-04-20T14:29:32.828Z,7.30
2019-04-20T14:32:03.630Z,6.65
2019-04-20T14:34:33.158Z,5.95
2019-04-20T14:37:02.640Z,6.28
2019-04-20T14:39:32.280Z,5.75
2019-04-20T14:42:02.434Z,6.62
2019-04-20T14:44:32.009Z,7.28
2019-04-20T14:47:01.323Z,6.80
2019-04-20T14:49:30.630Z,6.03
2019-04-20T14:52:01.155Z,5.72
2019-04-20T14:54:31.808Z,5.87
2019-04-20T14:57:01.462Z,5.53
2019-04-20T14:59:47.500Z,5.22
2019-04-20T15:02:19.454Z,4.87
2019-04-20T15:04:50.323Z,5.50
2019-04-20T15:07:20.545Z,5.37
2019-04-20T15:09:51.022Z,5.92
2019-04-20T15:12:21.267Z,4.85
2019-04-20T15:14:50.592Z,5.20
2019-04-20T15:17:51.451Z,6.62
2019-04-20T15:20:33.169Z,6.45
2019-04-20T15:23:07.620Z,5.37
2019-04-20T15:25:37.024Z,6.37
2019-04-20T15:28:06.250Z,5.30
2019-04-20T15:30:36.145Z,6.12
2019-04-20T15:33:05.335Z,5.47
2019-04-20T15:35:34.739Z,5.03
2019-04-20T15:38:05.119Z,5.20
2019-04-20T15:40:35.240Z,5.47
2019-04-20T15:43:13.317Z,5.50
2019-04-20T15:45:35.385Z,5.85
2019-04-20T15:48:05.874Z,4.72
2019-04-20T15:50:35.986Z,5.00
2019-04-20T15:53:05.920Z,5.33
2019-04-20T15:55:38.382Z,4.42
2019-04-20T15:58:08.276Z,4.80
2019-04-20T16:00:38.386Z,5.03
2019-04-20T16:03:27.532Z,5.40
2019-04-20T16:06:07.539Z,5.10
2019-04-20T16:08:41.948Z,5.92
2019-04-20T16:11:13.137Z,6.58
2019-04-20T16:13:47.601Z,7.20
2019-04-20T16:16:14.197Z,7.03
2019-04-20T16:18:45.270Z,7.53
2019-04-20T16:21:20.955Z,7.67
2019-04-20T16:23:50.737Z,7.65
2019-04-20T16:26:31.591Z,8.30
2019-04-20T16:29:01.854Z,8.48
2019-04-20T16:31:31.247Z,8.40
2019-04-20T16:34:01.186Z,8.25
2019-04-20T16:36:30.583Z,7.87
2019-04-20T16:38:59.727Z,7.95
2019-04-20T16:41:30.502Z,7.95
2019-04-20T16:43:59.880Z,8.35
2019-04-20T16:46:30.106Z,8.58
2019-04-20T16:48:59.428Z,8.73
2019-04-20T16:51:29.190Z,8.45
2019-04-20T16:53:59.523Z,8.48
2019-04-20T16:56:28.928Z,8.38
2019-04-20T16:59:05.579Z,7.87
2019-04-20T17:01:29.845Z,8.03
2019-04-20T17:04:06.783Z,7.62
2019-04-20T17:06:31.735Z,7.58
2019-04-20T17:09:01.289Z,7.37
2019-04-20T17:11:31.726Z,7.67
2019-04-20T17:14:03.136Z,8.10
2019-04-20T17:16:33.202Z,8.00
2019-04-20T17:19:03.830Z,7.67
2019-04-20T17:21:34.209Z,7.83
2019-04-20T17:24:04.097Z,8.30
2019-04-20T17:26:52.948Z,7.80
2019-04-20T17:29:26.235Z,7.78
2019-04-20T17:32:03.366Z,8.53
2019-04-20T17:34:51.196Z,8.28
2019-04-20T17:37:04.569Z,8.25
2019-04-20T17:39:45.327Z,7.35
2019-04-20T17:42:20.018Z,7.90
2019-04-20T17:44:49.291Z,8.13
2019-04-20T17:47:28.905Z,7.30
2019-04-20T17:49:57.641Z,7.70
2019-04-20T17:52:33.934Z,8.05
2019-04-20T17:54:47.455Z,7.97
2019-04-20T17:57:17.279Z,8.27
2019-04-20T17:59:55.343Z,9.17
2019-04-20T18:03:10.086Z,8.03
2019-04-20T18:05:51.424Z,8.07
2019-04-20T18:08:27.091Z,7.53
2019-04-20T18:10:47.447Z,8.10
2019-04-20T18:13:11.938Z,8.20
2019-04-20T18:15:52.676Z,7.70
2019-04-20T18:18:49.469Z,8.03
2019-04-20T18:21:16.916Z,7.67
2019-04-20T18:23:48.590Z,7.30
2019-04-20T18:26:39.320Z,7.43
2019-04-20T18:31:41.779Z,7.97
2019-04-20T18:34:18.847Z,7.23
2019-04-20T18:36:49.132Z,7.43
2019-04-20T18:39:23.481Z,7.53
2019-04-20T18:41:52.153Z,8.33
2019-04-20T18:44:27.701Z,9.13
2019-04-20T18:47:12.488Z,8.97
2019-04-20T18:49:35.019Z,8.03
2019-04-20T18:51:53.571Z,7.90
2019-04-20T18:54:28.147Z,8.28
2019-04-20T18:56:56.176Z,8.00
2019-04-20T18:59:35.054Z,8.17
2019-04-20T19:01:57.018Z,8.37
2019-04-20T19:04:27.854Z,8.60
2019-04-20T19:06:57.397Z,8.70
2019-04-20T19:09:30.277Z,7.73
2019-04-20T19:12:02.510Z,8.50
2019-04-20T19:14:49.575Z,8.47
2019-04-20T19:17:48.171Z,8.30
2019-04-20T19:20:14.058Z,8.70
2019-04-20T19:22:44.109Z,9.33
2019-04-20T19:25:18.318Z,9.30
2019-04-20T19:27:49.301Z,9.47
2019-04-20T19:30:27.351Z,9.67
2019-04-20T19:33:05.019Z,9.80
2019-04-20T19:35:32.213Z,9.47
2019-04-20T19:38:00.688Z,9.60
2019-04-20T19:40:36.062Z,9.87
2019-04-20T19:43:02.317Z,9.77
2019-04-20T19:46:15.274Z,10.17
2019-04-20T19:48:09.536Z,9.37
2019-04-20T19:50:48.447Z,10.30
2019-04-20T19:53:24.616Z,10.47
2019-04-20T19:55:42.993Z,10.67
2019-04-20T19:58:09.723Z,10.40
2019-04-20T20:00:57.692Z,9.50
2019-04-20T20:03:27.784Z,10.27
2019-04-20T20:05:58.253Z,10.80
2019-04-20T20:08:32.664Z,10.63
2019-04-20T20:11:01.261Z,10.13
2019-04-20T20:13:34.600Z,10.57
2019-04-20T20:16:09.688Z,10.13
2019-04-20T20:18:46.618Z,11.33
2019-04-20T20:21:16.216Z,11.53
2019-04-20T20:23:36.302Z,10.80
2019-04-20T20:26:09.015Z,10.77
2019-04-20T20:28:45.394Z,10.97
2019-04-20T20:31:20.742Z,10.50
2019-04-20T20:33:56.475Z,10.47
2019-04-20T20:36:17.193Z,10.23
2019-04-20T20:38:46.912Z,9.77
2019-04-20T20:41:20.553Z,10.73
2019-04-20T20:43:53.588Z,10.47
2019-04-20T20:46:23.935Z,10.67
2019-04-20T20:49:04.802Z,10.47
2019-04-20T20:51:39.201Z,9.70
2019-04-20T20:53:59.039Z,10.40
2019-04-20T20:56:24.068Z,10.80
2019-04-20T20:58:59.163Z,10.37
2019-04-20T21:01:25.692Z,9.73
2019-04-20T21:03:53.102Z,9.90
2019-04-20T21:06:22.409Z,12.07
2019-04-20T21:08:56.618Z,11.70
2019-04-20T21:11:30.522Z,10.83
2019-04-20T21:13:57.565Z,10.93
2019-04-20T21:16:33.053Z,10.40
2019-04-20T21:19:14.727Z,10.77
2019-04-20T21:21:42.553Z,11.23
2019-04-20T21:24:10.835Z,10.60
2019-04-20T21:26:41.973Z,10.63
2019-04-20T21:29:08.126Z,9.77
2019-04-20T21:31:38.570Z,10.90
2019-04-20T21:34:13.151Z,10.77
2019-04-20T21:36:38.899Z,11.33
2019-04-20T21:39:21.866Z,11.70
2019-04-20T21:41:49.660Z,11.97
2019-04-20T21:44:15.602Z,11.67
2019-04-20T21:46:47.383Z,10.67
2019-04-20T21:49:30.626Z,10.47
2019-04-20T21:51:54.868Z,10.57
2019-04-20T21:54:16.105Z,10.10
2019-04-20T21:56:54.987Z,11.13
2019-04-20T21:59:24.128Z,10.33
2019-04-20T22:01:56.382Z,10.77
2019-04-20T22:04:20.054Z,10.67
2019-04-20T22:06:50.139Z,10.93
2019-04-20T22:09:20.371Z,11.00
2019-04-20T22:11:51.908Z,11.27
2019-04-20T22:14:24.892Z,11.07
2019-04-20T22:16:55.111Z,11.27
2019-04-20T22:19:34.525Z,11.40
2019-04-20T22:22:05.482Z,9.47
2019-04-20T22:24:42.426Z,10.70
2019-04-20T22:27:06.465Z,10.90
2019-04-20T22:29:28.073Z,11.07
2019-04-20T22:32:02.880Z,10.67
2019-04-20T22:34:29.850Z,10.67
2019-04-20T22:36:59.940Z,11.10
2019-04-20T22:39:39.662Z,10.60
2019-04-20T22:42:08.737Z,10.73
2019-04-20T22:44:36.392Z,10.87
2019-04-20T22:47:13.839Z,10.37
2019-04-20T22:49:50.265Z,10.30
2019-04-20T22:52:26.510Z,10.50
2019-04-20T22:54:54.369Z,11.13
2019-04-20T22:57:27.690Z,11.70
2019-04-20T22:59:52.348Z,11.13
2019-04-20T23:02:11.759Z,11.30
2019-04-20T23:04:42.703Z,11.37
2019-04-20T23:07:12.785Z,10.97
2019-04-20T23:09:48.686Z,10.60
2019-04-20T23:12:17.784Z,11.40
2019-04-20T23:14:44.705Z,11.90
2019-04-20T23:17:18.137Z,10.90
2019-04-20T23:19:49.473Z,10.90
2019-04-20T23:22:17.457Z,11.40
2019-04-20T23:24:47.141Z,11.17
2019-04-20T23:27:23.365Z,11.33
2019-04-20T23:29:47.391Z,10.93
2019-04-20T23:32:18.158Z,11.20
2019-04-20T23:34:51.199Z,11.50
2019-04-20T23:37:24.588Z,11.43
2019-04-20T23:39:51.336Z,10.70
2019-04-20T23:42:27.991Z,11.53
2019-04-20T23:45:15.282Z,10.47
2019-04-20T23:47:57.885Z,11.70
2019-04-20T23:50:41.068Z,11.63
2019-04-20T23:53:18.208Z,11.47
2019-04-20T23:55:25.712Z,10.93
2019-04-20T23:58:00.733Z,12.50
